Time;durP1;ratioP1;P1;durP2;ratioP2;P2;SDS_P1;SDS_P2;PMS_P1;PMS_P2;Temp;Humidity;BMP_temperature;BMP_pressure;BME280_temperature;BME280_humidity;BME280_pressure;Samples;Min_cycle;Max_cycle;Signal;HPM_P1;HPM_P2
2023/10/08 00:01:50;;;;;;;1.63;1.40;;;20.40;88.20;;;;;;5091595;28;20055;-26
2023/10/08 00:04:19;;;;;;;2.53;1.60;;;;;;;;;;5091160;28;20079;-25
2023/10/08 00:06:46;;;;;;;1.77;1.40;;;19.50;87.30;;;;;;5091380;28;20051;-27
2023/10/08 00:09:15;;;;;;;1.85;1.40;;;;;;;;;;5091708;28;20048;-26
2023/10/08 00:11:43;;;;;;;1.75;1.27;;;19.40;87.70;;;;;;5091560;28;20079;-25
2023/10/08 00:14:17;;;;;;;3.15;1.52;;;19.10;70.30;;;;;;5091448;28;20559;-26
2023/10/08 00:16:49;;;;;;;1.48;1.17;;;;;;;;;;5091149;28;20048;-26
2023/10/08 00:19:18;;;;;;;2.25;1.30;;;19.30;87.20;;;;;;5091391;28;20044;-25
2023/10/08 00:21:48;;;;;;;1.60;1.30;;;18.70;87.00;;;;;;5091523;28;20134;-25
2023/10/08 00:24:15;;;;;;;2.40;1.20;;;19.00;87.50;;;;;;5091164;28;20048;-26
2023/10/08 00:26:42;;;;;;;1.65;1.20;;;20.70;87.90;;;;;;5091039;28;20827;-26
2023/10/08 00:29:16;;;;;;;1.80;1.35;;;19.90;87.40;;;;;;5091333;28;20126;-25
2023/10/08 00:31:45;;;;;;;1.47;1.20;;;19.50;87.50;;;;;;5093266;28;20059;-25
2023/10/08 00:34:12;;;;;;;2.60;1.40;;;19.90;88.00;;;;;;5094805;28;20647;-26
2023/10/08 00:36:41;;;;;;;1.70;1.20;;;20.30;87.90;;;;;;5094237;28;20046;-25
2023/10/08 00:39:13;;;;;;;2.47;1.50;;;;;;;;;;5094890;28;20131;-27
2023/10/08 00:41:44;;;;;;;2.15;1.40;;;19.50;70.30;;;;;;5093998;28;20087;-28
2023/10/08 00:44:15;;;;;;;1.63;1.13;;;19.90;76.90;;;;;;5093538;28;20052;-26
2023/10/08 00:46:47;;;;;;;1.65;1.30;;;19.90;70.60;;;;;;5094873;28;20080;-26
2023/10/08 00:49:31;;;;;;;1.58;1.10;;;;;;;;;;5094743;28;20048;-26
2023/10/08 00:52:18;;;;;;;1.45;1.10;;;;;;;;;;5094404;28;20043;-26
2023/10/08 00:54:54;;;;;;;1.60;1.15;;;;;;;;;;5094700;28;20052;-26
2023/10/08 00:57:23;;;;;;;1.90;1.50;;;18.40;74.50;;;;;;5094726;28;20040;-26
2023/10/08 00:59:53;;;;;;;1.50;1.08;;;19.90;87.70;;;;;;5094387;28;20044;-26
2023/10/08 01:02:26;;;;;;;1.35;1.05;;;20.30;88.20;;;;;;5094519;28;20044;-25
2023/10/08 01:04:54;;;;;;;1.40;1.00;;;19.60;75.90;;;;;;5094441;28;20044;-26
2023/10/08 01:07:21;;;;;;;1.70;1.25;;;;;;;;;;5094420;28;20143;-27
2023/10/08 01:09:50;;;;;;;1.20;0.93;;;19.50;87.40;;;;;;5094181;28;20098;-26
2023/10/08 01:12:26;;;;;;;1.00;0.90;;;19.10;76.40;;;;;;5093974;28;20055;-26
2023/10/08 01:14:55;;;;;;;1.58;1.00;;;19.50;79.50;;;;;;5094153;28;20047;-26
2023/10/08 01:17:25;;;;;;;1.23;0.90;;;;;;;;;;5094252;28;20056;-26
2023/10/08 01:19:56;;;;;;;1.55;1.15;;;19.50;80.90;;;;;;5094116;28;20098;-26
2023/10/08 01:22:28;;;;;;;1.08;0.98;;;19.40;84.70;;;;;;5094299;28;20047;-26
2023/10/08 01:24:55;;;;;;;1.17;0.98;;;19.50;87.40;;;;;;5093625;28;20056;-25
2023/10/08 01:27:24;;;;;;;2.00;1.00;;;20.60;78.90;;;;;;5094229;28;20476;-27
2023/10/08 01:29:51;;;;;;;1.35;0.90;;;19.20;87.20;;;;;;5094002;28;20048;-26
2023/10/08 01:32:19;;;;;;;1.02;0.93;;;19.50;87.70;;;;;;5094111;28;20060;-26
2023/10/08 01:34:46;;;;;;;0.90;0.90;;;;;;;;;;5093397;28;20075;-26
2023/10/08 01:37:14;;;;;;;1.08;0.90;;;19.10;87.50;;;;;;5093385;28;20055;-26
2023/10/08 01:39:42;;;;;;;1.20;1.00;;;19.40;87.40;;;;;;5093730;28;20123;-25
2023/10/08 01:42:15;;;;;;;1.15;1.00;;;19.40;87.30;;;;;;5093008;28;20457;-26
2023/10/08 01:44:45;;;;;;;1.30;0.90;;;19.90;76.20;;;;;;5093572;28;20062;-26
2023/10/08 01:47:12;;;;;;;1.27;0.93;;;18.70;87.30;;;;;;5093632;28;20059;-25
2023/10/08 01:49:39;;;;;;;2.28;1.15;;;19.10;87.10;;;;;;5093571;28;20082;-25
2023/10/08 01:52:13;;;;;;;1.10;0.90;;;;;;;;;;5093340;28;20048;-28
2023/10/08 01:54:40;;;;;;;2.22;0.80;;;19.30;87.40;;;;;;5093167;28;20453;-26
2023/10/08 01:57:09;;;;;;;1.10;0.80;;;19.60;84.30;;;;;;5093519;28;20048;-25
2023/10/08 01:59:37;;;;;;;0.90;0.80;;;20.70;88.00;;;;;;5093529;28;20075;-25
2023/10/08 02:02:05;;;;;;;1.08;0.88;;;19.60;87.50;;;;;;5093374;28;20052;-24
2023/10/08 02:04:35;;;;;;;1.23;0.90;;;;;;;;;;5093072;28;20080;-25
2023/10/08 02:07:03;;;;;;;0.77;0.77;;;19.10;87.30;;;;;;5093115;28;20076;-25
2023/10/08 02:09:30;;;;;;;0.73;0.73;;;19.40;87.80;;;;;;5093259;28;20127;-25
2023/10/08 02:11:58;;;;;;;0.98;0.80;;;19.30;81.20;;;;;;5093004;28;20131;-26
2023/10/08 02:14:30;;;;;;;1.00;0.90;;;20.30;70.70;;;;;;5092970;28;20052;-27
2023/10/08 02:17:01;;;;;;;1.40;0.95;;;;;;;;;;5092853;28;20048;-27
2023/10/08 02:19:28;;;;;;;0.70;0.70;;;19.20;87.20;;;;;;5092800;28;20052;-25
2023/10/08 02:21:55;;;;;;;2.65;0.85;;;19.30;87.60;;;;;;5093084;28;20138;-27
2023/10/08 02:24:23;;;;;;;0.80;0.70;;;;;;;;;;5092704;28;20123;-28
2023/10/08 02:26:51;;;;;;;0.98;0.88;;;18.40;87.20;;;;;;5092783;28;20489;-26
2023/10/08 02:29:18;;;;;;;1.10;0.80;;;19.40;87.40;;;;;;5092781;28;20044;-26
2023/10/08 02:31:47;;;;;;;1.17;0.90;;;19.80;80.10;;;;;;5092542;28;20146;-25
2023/10/08 02:34:14;;;;;;;1.25;0.80;;;20.10;81.40;;;;;;5092884;28;20131;-26
2023/10/08 02:36:41;;;;;;;0.70;0.70;;;18.40;87.00;;;;;;5092181;28;20097;-25
2023/10/08 02:39:13;;;;;;;1.13;0.80;;;;;;;;;;5092666;28;20044;-26
2023/10/08 02:41:42;;;;;;;0.93;0.75;;;20.40;81.90;;;;;;5092332;28;20070;-26
2023/10/08 02:44:11;;;;;;;1.10;0.80;;;18.40;86.90;;;;;;5092488;28;20048;-25
2023/10/08 02:46:40;;;;;;;1.45;0.90;;;18.80;87.00;;;;;;5092078;28;20048;-25
2023/10/08 02:49:10;;;;;;;1.15;0.82;;;18.30;86.90;;;;;;5092651;28;20052;-25
2023/10/08 02:51:38;;;;;;;0.70;0.70;;;19.10;87.30;;;;;;5092427;28;20566;-26
2023/10/08 02:54:06;;;;;;;0.60;0.60;;;19.10;87.30;;;;;;5091723;28;20048;-25
2023/10/08 02:56:33;;;;;;;1.50;0.80;;;20.20;82.50;;;;;;5092137;28;20050;-25
2023/10/08 02:59:00;;;;;;;0.82;0.80;;;19.10;87.50;;;;;;5091963;28;20047;-25
2023/10/08 03:01:26;;;;;;;0.80;0.80;;;19.10;79.90;;;;;;5092562;28;20071;-25
2023/10/08 03:04:01;;;;;;;0.70;0.60;;;18.50;87.00;;;;;;5092157;28;20126;-26
2023/10/08 03:06:31;;;;;;;0.70;0.65;;;19.40;70.30;;;;;;5091859;28;20087;-27
2023/10/08 03:09:03;;;;;;;0.95;0.75;;;;;;;;;;5092124;28;20056;-26
2023/10/08 03:11:31;;;;;;;1.25;0.80;;;19.00;75.30;;;;;;5092152;28;20457;-26
2023/10/08 03:13:58;;;;;;;1.10;0.90;;;19.80;88.20;;;;;;5092020;28;20051;-25
2023/10/08 03:16:28;;;;;;;0.90;0.80;;;19.90;76.90;;;;;;5091652;28;20048;-26
2023/10/08 03:18:57;;;;;;;0.80;0.70;;;19.20;88.20;;;;;;5074025;28;20496;-25
2023/10/08 03:21:43;;;;;;;0.98;0.80;;;19.10;87.70;;;;;;5092139;28;20098;-25
2023/10/08 03:24:29;;;;;;;0.52;0.52;;;19.00;87.80;;;;;;5091890;28;20424;-25
2023/10/08 03:27:05;;;;;;;0.50;0.50;;;19.30;87.60;;;;;;5091879;28;20048;-25
2023/10/08 03:29:33;;;;;;;0.90;0.80;;;19.70;84.40;;;;;;5091430;28;20131;-25
2023/10/08 03:32:05;;;;;;;0.60;0.60;;;18.90;87.80;;;;;;5091981;28;20051;-25
2023/10/08 03:34:34;;;;;;;0.60;0.60;;;20.40;88.20;;;;;;5091805;28;20056;-26
2023/10/08 03:37:05;;;;;;;1.20;0.70;;;20.10;88.40;;;;;;5091452;28;20127;-25
2023/10/08 03:39:50;;;;;;;0.77;0.63;;;19.20;87.50;;;;;;5091729;28;20040;-25
2023/10/08 03:42:20;;;;;;;;;;;19.40;70.10;;;;;;5092344;28;20071;-26
2023/10/08 03:44:50;;;;;;;1.02;0.70;;;19.60;88.40;;;;;;5091579;28;19920;-26
2023/10/08 03:47:18;;;;;;;0.70;0.70;;;;;;;;;;5091579;28;20044;-27
2023/10/08 03:49:46;;;;;;;1.13;0.90;;;19.10;87.80;;;;;;5091455;28;20701;-26
2023/10/08 03:52:13;;;;;;;0.77;0.60;;;18.90;87.40;;;;;;5091794;28;20475;-26
2023/10/08 03:54:48;;;;;;;0.88;0.70;;;19.50;87.20;;;;;;5091527;28;20052;-26
2023/10/08 03:57:19;;;;;;;1.10;0.70;;;18.90;87.40;;;;;;5091698;28;20485;-25
2023/10/08 03:59:48;;;;;;;0.80;0.70;;;;;;;;;;5091531;28;20044;-27
2023/10/08 04:02:22;;;;;;;0.90;0.60;;;19.20;87.80;;;;;;5091589;28;20052;-26
2023/10/08 04:04:51;;;;;;;0.80;0.80;;;19.20;86.90;;;;;;5091184;28;20094;-26
2023/10/08 04:07:55;;;;;;;0.85;0.82;;;;;;;;;;5094162;28;20047;-26
2023/10/08 04:11:07;;;;;;;0.57;0.52;;;19.20;87.60;;;;;;5095638;28;20079;-25
2023/10/08 04:13:28;;;;;;;0.70;0.70;;;19.60;81.10;;;;;;5095074;28;20052;-25
2023/10/08 04:15:55;;;;;;;0.82;0.70;;;19.20;70.80;;;;;;5095090;28;20048;-26
2023/10/08 04:18:21;;;;;;;0.85;0.70;;;19.60;88.00;;;;;;5095396;28;20090;-26
2023/10/08 04:21:00;;;;;;;1.60;0.60;;;20.00;88.20;;;;;;5095087;28;20131;-26
2023/10/08 04:23:28;;;;;;;1.73;0.73;;;19.80;75.80;;;;;;5095485;28;20051;-26
2023/10/08 04:25:57;;;;;;;0.82;0.80;;;20.10;88.30;;;;;;5094756;28;20044;-25
2023/10/08 04:28:28;;;;;;;1.10;0.70;;;;;;;;;;5095103;28;20087;-26
2023/10/08 04:31:00;;;;;;;0.52;0.52;;;;;;;;;;5094931;28;20554;-26
2023/10/08 04:33:31;;;;;;;1.48;0.77;;;20.30;82.00;;;;;;5095291;28;20058;-26
2023/10/08 04:36:01;;;;;;;1.73;0.60;;;19.50;87.90;;;;;;5093783;28;20067;-25
2023/10/08 04:38:28;;;;;;;2.00;0.52;;;19.50;87.60;;;;;;5095163;28;20048;-25
2023/10/08 04:41:01;;;;;;;1.83;0.80;;;19.70;87.80;;;;;;5094780;28;20052;-25
2023/10/08 04:43:28;;;;;;;0.93;0.68;;;19.20;87.50;;;;;;5094807;28;20117;-26
2023/10/08 04:45:56;;;;;;;1.35;0.70;;;19.20;88.00;;;;;;5094625;28;20044;-26
2023/10/08 04:48:25;;;;;;;0.98;0.70;;;;;;;;;;5094457;28;20089;-25
2023/10/08 04:50:58;;;;;;;1.05;0.70;;;;;;;;;;5094795;28;20047;-28
2023/10/08 04:53:31;;;;;;;1.02;0.60;;;18.50;87.30;;;;;;5094689;28;20077;-25
2023/10/08 04:56:05;;;;;;;0.57;0.57;;;19.30;84.50;;;;;;5094590;28;20079;-26
2023/10/08 04:58:36;;;;;;;1.45;0.73;;;18.50;69.60;;;;;;5094559;28;20048;-25
2023/10/08 05:01:17;;;;;;;1.52;0.68;;;19.50;88.00;;;;;;5094442;28;20455;-25
2023/10/08 05:03:55;;;;;;;0.90;0.63;;;18.60;87.50;;;;;;5094315;28;20044;-25
2023/10/08 05:06:39;;;;;;;0.80;0.70;;;20.20;85.00;;;;;;5094459;28;20052;-25
2023/10/08 05:09:11;;;;;;;0.80;0.70;;;;;;;;;;5094278;28;20131;-25
2023/10/08 05:12:07;;;;;;;1.50;0.77;;;19.50;87.90;;;;;;5094462;28;20132;-25
2023/10/08 05:14:36;;;;;;;0.88;0.73;;;19.50;88.00;;;;;;5093986;28;20052;-25
2023/10/08 05:17:09;;;;;;;1.45;0.63;;;19.30;87.70;;;;;;5093319;28;20044;-24
2023/10/08 05:19:48;;;;;;;0.70;0.60;;;19.50;87.90;;;;;;5094020;28;20133;-25
2023/10/08 05:22:33;;;;;;;0.95;0.60;;;18.90;78.30;;;;;;5093711;28;20519;-25
2023/10/08 05:25:24;;;;;;;1.80;0.80;;;19.30;70.10;;;;;;5093636;28;20058;-26
2023/10/08 05:28:08;;;;;;;0.90;0.70;;;19.40;82.60;;;;;;5093865;28;20050;-25
2023/10/08 05:30:41;;;;;;;1.53;0.70;;;19.30;87.70;;;;;;5093717;28;20044;-25
2023/10/08 05:33:25;;;;;;;1.17;0.70;;;19.60;87.90;;;;;;5093773;28;20051;-25
2023/10/08 05:35:54;;;;;;;0.68;0.68;;;19.20;88.10;;;;;;5092933;28;20125;-25
2023/10/08 05:38:38;;;;;;;0.80;0.57;;;19.20;70.00;;;;;;5094030;28;20048;-26
2023/10/08 05:41:27;;;;;;;0.77;0.60;;;19.00;87.60;;;;;;5091539;28;20048;-25
2023/10/08 05:47:22;;;;;;;0.75;0.50;;;18.90;83.00;;;;;;5093421;28;20501;-30
2023/10/08 05:50:09;;;;;;;1.30;0.70;;;19.20;70.10;;;;;;5093559;28;20044;-28
2023/10/08 05:52:50;;;;;;;1.40;0.80;;;19.00;87.60;;;;;;5090233;28;20159;-30
2023/10/08 05:55:25;;;;;;;1.27;0.70;;;19.00;87.70;;;;;;5093484;28;20144;-28
2023/10/08 05:58:13;;;;;;;0.75;0.65;;;18.60;70.20;;;;;;5093687;28;20044;-27
2023/10/08 06:01:01;;;;;;;1.38;0.68;;;19.50;70.20;;;;;;5093681;28;20048;-27
2023/10/08 06:03:36;;;;;;;0.80;0.60;;;;;;;;;;5093431;28;20048;-29
2023/10/08 06:09:20;;;;;;;;;;;19.20;70.50;;;;;;5093145;28;20127;-30
2023/10/08 06:12:07;;;;;;;1.15;0.70;;;;;;;;;;5092992;28;19919;-31
2023/10/08 06:14:52;;;;;;;1.25;0.93;;;19.20;81.60;;;;;;5091550;28;20040;-30
2023/10/08 06:20:09;;;;;;;1.08;0.70;;;18.30;87.40;;;;;;5092779;28;20052;-31
2023/10/08 06:22:35;;;;;;;1.70;0.90;;;19.20;70.00;;;;;;5092998;28;20040;-30
2023/10/08 06:25:18;;;;;;;1.90;0.98;;;18.80;75.20;;;;;;5092190;28;20134;-27
2023/10/08 06:27:45;;;;;;;2.58;0.70;;;19.00;79.50;;;;;;5092988;28;20066;-31
2023/10/08 06:30:16;;;;;;;1.23;0.85;;;19.50;88.20;;;;;;5091869;28;20051;-32
2023/10/08 06:32:45;;;;;;;3.70;0.88;;;19.20;87.60;;;;;;5092792;28;20199;-30
2023/10/08 06:35:17;;;;;;;3.28;0.90;;;;;;;;;;5092147;28;20048;-28
2023/10/08 06:37:45;;;;;;;0.98;0.70;;;18.70;87.70;;;;;;5092212;28;20098;-31
2023/10/08 06:40:40;;;;;;;1.75;0.82;;;18.80;87.90;;;;;;5092674;28;20043;-33
2023/10/08 06:43:03;;;;;;;4.13;0.90;;;19.20;88.10;;;;;;5092382;28;20490;-32
2023/10/08 06:45:32;;;;;;;1.20;0.70;;;19.10;87.70;;;;;;5092648;28;20052;-31
2023/10/08 06:48:06;;;;;;;3.55;0.80;;;19.50;81.80;;;;;;5092343;28;20056;-29
2023/10/08 06:50:35;;;;;;;1.02;0.70;;;19.30;88.00;;;;;;5092271;28;20097;-33
2023/10/08 06:53:07;;;;;;;2.63;0.77;;;18.00;80.90;;;;;;5092429;28;20048;-31
2023/10/08 06:55:35;;;;;;;2.25;0.93;;;19.30;88.20;;;;;;5092348;28;20455;-33
2023/10/08 06:58:05;;;;;;;3.65;0.88;;;;;;;;;;5091901;28;20432;-31
2023/10/08 07:00:39;;;;;;;3.75;1.10;;;18.90;86.10;;;;;;5091806;28;20047;-28
2023/10/08 07:03:10;;;;;;;0.98;0.80;;;19.50;80.50;;;;;;5092106;28;20039;-30
2023/10/08 07:05:40;;;;;;;2.47;0.90;;;19.60;86.10;;;;;;5091187;28;20044;-32
2023/10/08 07:08:08;;;;;;;4.95;0.80;;;19.30;70.00;;;;;;5091924;28;20150;-33
2023/10/08 07:10:35;;;;;;;4.25;1.02;;;19.00;87.50;;;;;;5091570;28;20082;-33
2023/10/08 07:13:03;;;;;;;2.53;1.00;;;;;;;;;;5091152;28;20131;-30
2023/10/08 07:15:30;;;;;;;4.38;1.00;;;19.30;76.90;;;;;;5093652;28;20119;-28
2023/10/08 07:18:07;;;;;;;1.27;0.90;;;19.90;87.70;;;;;;5102894;28;20051;-32
2023/10/08 07:20:39;;;;;;;1.35;1.05;;;18.60;80.00;;;;;;5098385;28;20167;-31
2023/10/08 07:23:09;;;;;;;1.60;0.80;;;19.20;87.30;;;;;;5101384;28;20051;-31
2023/10/08 07:25:38;;;;;;;1.77;0.80;;;19.50;69.70;;;;;;5102773;28;20353;-30
2023/10/08 07:28:07;;;;;;;0.98;0.60;;;19.70;87.40;;;;;;5102154;28;20078;-33
2023/10/08 07:30:43;;;;;;;2.63;0.70;;;19.80;69.80;;;;;;5097418;28;20047;-28
2023/10/08 07:33:17;;;;;;;1.45;0.80;;;;;;;;;;5104187;28;20040;-29
2023/10/08 07:35:52;;;;;;;1.80;0.80;;;19.20;87.30;;;;;;5100352;28;20044;-33
2023/10/08 07:38:21;;;;;;;2.72;0.75;;;;;;;;;;5101266;28;20419;-32
2023/10/08 07:40:48;;;;;;;1.88;0.90;;;19.30;78.00;;;;;;5100129;28;20543;-33
2023/10/08 07:43:16;;;;;;;1.33;0.75;;;;;;;;;;5095997;28;20124;-31
2023/10/08 07:45:45;;;;;;;1.73;0.90;;;20.70;77.60;;;;;;5096831;28;20044;-33
2023/10/08 07:48:13;;;;;;;1.27;0.90;;;19.70;80.20;;;;;;5094258;28;20069;-33
2023/10/08 07:50:42;;;;;;;1.40;0.73;;;19.60;81.20;;;;;;5093076;28;20451;-29
2023/10/08 07:53:17;;;;;;;1.58;0.80;;;19.60;75.40;;;;;;5095573;28;20135;-30
2023/10/08 07:55:45;;;;;;;;;;;19.60;69.90;;;;;;5095769;28;20083;-35
2023/10/08 07:58:12;;;;;;;1.23;0.80;;;19.20;86.90;;;;;;5095787;28;19924;-33
2023/10/08 08:00:40;;;;;;;1.75;1.13;;;19.60;87.40;;;;;;5095784;28;20132;-34
2023/10/08 08:03:07;;;;;;;1.35;0.73;;;;;;;;;;5095654;28;20045;-27
2023/10/08 08:05:37;;;;;;;2.55;0.73;;;19.50;86.90;;;;;;5095453;28;20493;-32
2023/10/08 08:08:06;;;;;;;1.10;0.70;;;;;;;;;;5095245;28;20131;-30
2023/10/08 08:10:36;;;;;;;1.42;0.80;;;20.80;87.60;;;;;;5095176;28;20393;-33
2023/10/08 08:13:05;;;;;;;3.30;1.33;;;20.40;87.30;;;;;;5095728;28;20051;-32
2023/10/08 08:15:33;;;;;;;1.38;0.80;;;20.20;87.20;;;;;;5095015;28;20044;-30
2023/10/08 08:18:00;;;;;;;1.27;0.73;;;;;;;;;;5095618;28;20044;-28
2023/10/08 08:20:38;;;;;;;1.40;0.75;;;;;;;;;;5095214;28;20109;-30
2023/10/08 08:23:07;;;;;;;1.65;1.00;;;19.40;86.80;;;;;;5095263;28;20040;-33
2023/10/08 08:25:45;;;;;;;2.00;0.90;;;20.00;72.00;;;;;;5094873;28;20063;-30
2023/10/08 08:28:16;;;;;;;1.65;0.80;;;;;;;;;;5094139;28;20058;-29
2023/10/08 08:30:46;;;;;;;2.28;0.90;;;19.40;87.10;;;;;;5093664;28;20051;-33
2023/10/08 08:33:21;;;;;;;0.88;0.60;;;20.10;87.20;;;;;;5095136;28;20048;-32
2023/10/08 08:35:48;;;;;;;1.40;0.93;;;;;;;;;;5094463;28;20132;-31
2023/10/08 08:38:15;;;;;;;1.73;0.90;;;20.70;86.50;;;;;;5090551;28;20471;-33
2023/10/08 08:40:43;;;;;;;2.05;1.00;;;19.50;86.60;;;;;;5094876;28;20048;-30
2023/10/08 08:43:11;;;;;;;4.35;1.48;;;19.50;86.60;;;;;;5094999;28;20075;-31
2023/10/08 08:45:40;;;;;;;2.50;1.10;;;19.60;86.80;;;;;;5094871;28;20080;-30
2023/10/08 08:48:07;;;;;;;2.50;0.85;;;19.60;69.70;;;;;;5094565;28;20691;-27
2023/10/08 08:50:34;;;;;;;5.38;0.98;;;19.90;87.20;;;;;;5094753;28;20044;-25
2023/10/08 08:53:03;;;;;;;4.63;0.90;;;19.00;86.80;;;;;;5093584;28;20127;-25
2023/10/08 08:55:32;;;;;;;1.95;0.98;;;19.50;86.60;;;;;;5100516;28;20044;-24
2023/10/08 08:58:00;;;;;;;3.78;1.10;;;20.00;75.30;;;;;;5104109;28;20056;-25
2023/10/08 09:00:29;;;;;;;3.00;0.82;;;20.70;77.70;;;;;;5105451;28;20039;-25
2023/10/08 09:02:55;;;;;;;4.70;1.10;;;20.10;84.50;;;;;;5101827;28;20047;-25
2023/10/08 09:05:25;;;;;;;2.55;1.02;;;20.90;77.10;;;;;;5099407;28;20054;-25
2023/10/08 09:07:56;;;;;;;1.60;0.93;;;19.00;86.40;;;;;;5104971;28;20051;-24
2023/10/08 09:10:29;;;;;;;1.95;1.10;;;;;;;;;;5102384;28;20071;-24
2023/10/08 09:12:58;;;;;;;4.93;1.02;;;19.90;83.60;;;;;;5102147;28;20113;-25
2023/10/08 09:15:26;;;;;;;2.35;0.95;;;19.90;87.20;;;;;;5102564;28;20043;-24
2023/10/08 09:17:54;;;;;;;5.38;1.00;;;19.50;72.00;;;;;;5101049;28;20051;-26
2023/10/08 09:20:21;;;;;;;2.40;0.90;;;20.60;87.30;;;;;;5103270;28;20047;-24
2023/10/08 09:22:49;;;;;;;2.40;1.00;;;20.90;74.60;;;;;;5104288;28;20420;-26
2023/10/08 09:25:22;;;;;;;2.22;1.00;;;20.70;81.90;;;;;;5103281;28;20119;-26
2023/10/08 09:27:52;;;;;;;2.47;0.90;;;19.90;87.00;;;;;;5105047;28;20149;-25
2023/10/08 09:30:20;;;;;;;2.50;0.80;;;19.90;87.10;;;;;;5103908;28;20451;-25
2023/10/08 09:32:49;;;;;;;2.67;0.85;;;18.90;86.60;;;;;;5102543;28;20119;-26
2023/10/08 09:35:16;;;;;;;0.82;0.60;;;;;;;;;;5100841;28;20089;-26
2023/10/08 09:37:43;;;;;;;1.80;1.00;;;20.40;87.10;;;;;;5092914;28;20130;-26
2023/10/08 09:40:11;;;;;;;2.40;0.90;;;19.70;69.40;;;;;;5093473;28;20127;-27
2023/10/08 09:42:38;;;;;;;1.23;0.85;;;20.00;87.20;;;;;;5093642;28;20056;-27
2023/10/08 09:45:08;;;;;;;3.80;1.08;;;19.50;86.60;;;;;;5092818;28;20411;-26
2023/10/08 09:47:37;;;;;;;3.45;1.00;;;19.60;78.60;;;;;;5080450;28;20460;-26
2023/10/08 09:50:07;;;;;;;3.33;0.80;;;20.70;87.20;;;;;;5091012;28;20134;-26
2023/10/08 09:52:38;;;;;;;3.67;1.10;;;20.00;87.30;;;;;;5093583;28;20048;-26
2023/10/08 09:55:10;;;;;;;3.00;1.10;;;19.70;87.10;;;;;;5093037;28;20048;-26
2023/10/08 09:57:37;;;;;;;2.88;1.10;;;;;;;;;;5093385;28;20059;-27
2023/10/08 10:00:05;;;;;;;3.17;0.95;;;19.80;69.30;;;;;;5093227;28;20138;-27
2023/10/08 10:02:33;;;;;;;2.47;1.08;;;19.70;86.60;;;;;;5093506;28;20209;-26
2023/10/08 10:05:00;;;;;;;4.13;1.08;;;19.70;86.60;;;;;;5093027;28;20076;-25
2023/10/08 10:07:28;;;;;;;2.13;0.90;;;20.30;72.30;;;;;;5092456;28;20567;-26
2023/10/08 10:09:55;;;;;;;3.00;1.13;;;18.70;78.00;;;;;;5095098;28;20044;-26
2023/10/08 10:12:26;;;;;;;2.05;0.98;;;19.40;86.50;;;;;;5100904;28;20127;-26
2023/10/08 10:14:55;;;;;;;3.88;1.08;;;20.80;87.10;;;;;;5102782;28;20048;-25
2023/10/08 10:17:25;;;;;;;3.40;0.90;;;19.50;82.50;;;;;;5101539;28;20043;-29
2023/10/08 10:19:52;;;;;;;2.45;0.82;;;;;;;;;;5102623;28;20039;-31
2023/10/08 10:22:30;;;;;;;2.63;1.00;;;19.70;69.00;;;;;;5103619;28;20052;-29
2023/10/08 10:24:57;;;;;;;1.77;0.90;;;19.30;86.60;;;;;;5086266;28;20052;-32
2023/10/08 10:27:25;;;;;;;1.55;1.00;;;20.80;87.00;;;;;;5053419;28;20115;-29
2023/10/08 10:29:52;;;;;;;3.25;1.10;;;;;;;;;;5053085;28;20046;-29
2023/10/08 10:32:19;;;;;;;2.20;1.00;;;;;;;;;;5051786;28;20091;-31
2023/10/08 10:34:51;;;;;;;1.63;1.10;;;;;;;;;;5052587;28;20565;-28
2023/10/08 10:37:23;;;;;;;3.75;0.80;;;;;;;;;;5048997;28;20080;-31
2023/10/08 10:39:58;;;;;;;2.30;0.90;;;19.90;86.90;;;;;;5049683;28;20072;-30
2023/10/08 10:42:28;;;;;;;1.40;0.75;;;19.70;86.70;;;;;;5046289;28;20553;-30
2023/10/08 10:44:55;;;;;;;2.72;0.85;;;18.80;82.70;;;;;;5052333;28;20132;-29
2023/10/08 10:47:42;;;;;;;2.03;1.10;;;;;;;;;;5052139;28;20045;-29
2023/10/08 10:50:26;;;;;;;6.32;1.17;;;19.60;86.80;;;;;;5052265;28;20053;-34
2023/10/08 10:52:52;;;;;;;2.90;0.90;;;20.80;77.10;;;;;;5052286;28;20080;-31
2023/10/08 10:55:31;;;;;;;2.17;0.80;;;20.00;87.00;;;;;;5051724;28;20048;-30
2023/10/08 10:58:04;;;;;;;2.22;1.00;;;20.30;87.20;;;;;;5051688;28;20588;-31
2023/10/08 11:00:56;;;;;;;3.42;1.00;;;;;;;;;;5052295;28;20405;-29
2023/10/08 11:03:24;;;;;;;3.95;1.20;;;20.00;79.80;;;;;;5052059;28;20049;-30
2023/10/08 11:06:05;;;;;;;6.35;1.83;;;19.70;69.20;;;;;;5051693;28;20489;-28
2023/10/08 11:08:35;;;;;;;3.60;0.90;;;20.70;87.50;;;;;;5051543;28;20060;-29
2023/10/08 11:11:05;;;;;;;2.17;1.20;;;19.80;86.60;;;;;;5052028;28;20045;-29
2023/10/08 11:13:37;;;;;;;2.65;0.93;;;20.50;87.30;;;;;;5051718;28;20053;-31
2023/10/08 11:16:05;;;;;;;3.55;1.13;;;19.30;86.60;;;;;;5051123;28;20048;-29
2023/10/08 11:18:32;;;;;;;8.65;1.45;;;18.80;75.40;;;;;;5051780;28;20053;-31
2023/10/08 11:21:13;;;;;;;3.58;1.10;;;19.70;69.40;;;;;;5053305;28;20505;-28
2023/10/08 11:23:42;;;;;;;4.28;1.10;;;19.70;69.40;;;;;;5055468;28;20045;-30
2023/10/08 11:26:12;;;;;;;2.35;1.10;;;19.70;69.50;;;;;;5061138;28;20135;-29
2023/10/08 11:28:41;;;;;;;4.60;1.10;;;20.10;86.90;;;;;;5062505;28;20049;-31
2023/10/08 11:31:10;;;;;;;2.20;1.10;;;20.20;87.00;;;;;;5052194;28;20052;-31
2023/10/08 11:33:37;;;;;;;2.60;1.20;;;19.70;76.20;;;;;;5051197;28;20124;-30
2023/10/08 11:36:07;;;;;;;4.32;1.23;;;20.70;78.80;;;;;;5050812;28;20541;-30
2023/10/08 11:38:40;;;;;;;2.85;1.25;;;19.80;69.70;;;;;;5051594;28;20064;-27
2023/10/08 11:41:21;;;;;;;4.65;1.20;;;20.40;87.50;;;;;;5051757;28;20056;-31
2023/10/08 11:43:53;;;;;;;3.50;1.20;;;19.70;69.70;;;;;;5051585;28;20406;-29
2023/10/08 11:46:21;;;;;;;3.25;1.20;;;19.80;69.70;;;;;;5051566;28;20049;-28
2023/10/08 11:48:50;;;;;;;2.65;1.17;;;;;;;;;;5051660;28;20123;-29
2023/10/08 11:51:17;;;;;;;2.92;1.20;;;19.20;86.60;;;;;;5043769;28;20045;-31
2023/10/08 11:53:45;;;;;;;3.60;1.40;;;;;;;;;;5050956;28;20045;-30
2023/10/08 11:56:13;;;;;;;3.03;1.08;;;;;;;;;;5050443;28;20052;-31
2023/10/08 11:58:44;;;;;;;2.58;1.30;;;20.60;87.70;;;;;;5061416;28;20404;-30
2023/10/08 12:01:15;;;;;;;2.67;1.00;;;19.20;81.30;;;;;;5061894;28;20089;-30
2023/10/08 12:03:43;;;;;;;3.28;1.10;;;19.40;86.70;;;;;;5060997;28;20045;-29
2023/10/08 12:06:15;;;;;;;2.63;1.08;;;19.60;86.80;;;;;;5056399;28;20044;-30
2023/10/08 12:08:44;;;;;;;2.22;1.10;;;20.80;87.40;;;;;;5050859;28;20052;-32
2023/10/08 12:11:12;;;;;;;1.80;1.10;;;20.00;86.90;;;;;;5058876;28;20090;-30
2023/10/08 12:13:44;;;;;;;2.78;1.08;;;20.00;82.40;;;;;;5058408;28;20547;-31
2023/10/08 12:16:18;;;;;;;1.98;1.08;;;20.40;87.00;;;;;;5050870;28;20055;-29
2023/10/08 12:18:48;;;;;;;2.10;0.95;;;19.70;69.50;;;;;;5051135;28;20078;-28
2023/10/08 12:21:15;;;;;;;2.72;1.10;;;;;;;;;;5051172;28;20060;-28
2023/10/08 12:23:43;;;;;;;2.13;1.17;;;19.50;86.90;;;;;;5051091;28;20053;-30
2023/10/08 12:26:10;;;;;;;2.30;1.00;;;19.40;86.90;;;;;;5050940;28;20568;-29
2023/10/08 12:28:38;;;;;;;2.92;1.10;;;19.20;86.40;;;;;;5054262;28;20052;-30
2023/10/08 12:31:06;;;;;;;1.92;0.95;;;19.40;80.40;;;;;;5054701;28;20067;-28
2023/10/08 12:33:33;;;;;;;2.40;0.93;;;19.10;86.60;;;;;;5054938;28;20132;-31
2023/10/08 12:36:10;;;;;;;1.83;0.95;;;;;;;;;;5054159;28;20049;-32
2023/10/08 12:38:37;;;;;;;2.58;1.10;;;19.90;86.70;;;;;;5054570;28;20498;-30
2023/10/08 12:41:11;;;;;;;2.80;0.90;;;;;;;;;;5054548;28;20120;-31
2023/10/08 12:43:38;;;;;;;3.67;1.02;;;20.30;85.70;;;;;;5054853;28;20051;-29
2023/10/08 12:46:10;;;;;;;2.55;1.00;;;20.40;87.50;;;;;;5054432;28;20106;-30
2023/10/08 12:48:37;;;;;;;4.90;1.05;;;19.60;87.00;;;;;;5054562;28;20076;-30
2023/10/08 12:51:06;;;;;;;1.75;0.90;;;;;;;;;;5054190;28;20048;-30
2023/10/08 12:53:37;;;;;;;1.63;0.88;;;;;;;;;;5054211;28;20053;-30
2023/10/08 12:56:06;;;;;;;1.45;0.98;;;20.70;69.90;;;;;;5054344;28;20127;-30
2023/10/08 12:58:38;;;;;;;2.00;1.05;;;19.20;86.40;;;;;;5056976;28;20412;-33
2023/10/08 13:01:09;;;;;;;1.73;0.82;;;20.10;87.20;;;;;;5064692;28;20041;-31
2023/10/08 13:03:41;;;;;;;3.20;1.10;;;19.60;69.30;;;;;;5066265;28;20044;-29
2023/10/08 13:06:11;;;;;;;1.35;0.95;;;20.10;86.90;;;;;;5061211;28;20055;-30
2023/10/08 13:08:38;;;;;;;2.63;1.13;;;19.00;86.60;;;;;;5064511;28;20094;-30
2023/10/08 13:11:04;;;;;;;5.30;1.33;;;19.70;69.20;;;;;;5060236;28;20135;-29
2023/10/08 13:13:31;;;;;;;1.67;1.00;;;20.00;74.70;;;;;;5061280;28;20159;-30
2023/10/08 13:16:02;;;;;;;1.75;1.05;;;19.00;86.20;;;;;;5063093;28;20504;-30
2023/10/08 13:18:32;;;;;;;1.20;0.80;;;18.80;83.50;;;;;;5058557;28;20049;-30
2023/10/08 13:21:00;;;;;;;2.00;1.00;;;20.80;85.10;;;;;;5052796;28;20052;-30
2023/10/08 13:23:27;;;;;;;1.92;0.95;;;19.60;69.10;;;;;;5056255;28;20063;-28
2023/10/08 13:25:54;;;;;;;3.03;1.00;;;20.70;72.50;;;;;;5056947;28;20131;-29
2023/10/08 13:28:22;;;;;;;2.85;1.10;;;20.00;80.40;;;;;;5055763;28;20049;-31
2023/10/08 13:30:52;;;;;;;1.70;1.00;;;;;;;;;;5056448;28;20051;-27
2023/10/08 13:33:19;;;;;;;2.10;1.00;;;19.10;86.10;;;;;;5055971;28;20528;-29
2023/10/08 13:35:49;;;;;;;0.88;0.75;;;19.80;78.30;;;;;;5054954;28;20131;-29